sensor_id;sensor_type;location;lat;lon;timestamp;P1;durP1;ratioP1;P2;durP2;ratioP2
51529;SDS011;37613;51.788;21.582;2022-11-23T00:02:35;83.50;;;29.20;;
51529;SDS011;37613;51.788;21.582;2022-11-23T00:06:38;80.50;;;27.30;;
51529;SDS011;37613;51.788;21.582;2022-11-23T00:10:40;79.40;;;28.90;;
51529;SDS011;37613;51.788;21.582;2022-11-23T00:14:42;79.40;;;28.90;;
51529;SDS011;37613;51.788;21.582;2022-11-23T00:18:45;72.40;;;28.30;;
51529;SDS011;37613;51.788;21.582;2022-11-23T00:22:48;88.40;;;33.00;;
51529;SDS011;37613;51.788;21.582;2022-11-23T00:27:07;68.90;;;24.80;;
51529;SDS011;37613;51.788;21.582;2022-11-23T00:31:10;55.40;;;22.20;;
51529;SDS011;37613;51.788;21.582;2022-11-23T00:35:16;59.50;;;23.60;;
51529;SDS011;37613;51.788;21.582;2022-11-23T00:39:18;62.90;;;24.40;;
51529;SDS011;37613;51.788;21.582;2022-11-23T00:43:20;69.70;;;27.00;;
51529;SDS011;37613;51.788;21.582;2022-11-23T00:47:25;64.00;;;24.40;;
51529;SDS011;37613;51.788;21.582;2022-11-23T00:51:28;63.80;;;26.40;;
51529;SDS011;37613;51.788;21.582;2022-11-23T00:55:32;70.70;;;26.30;;
51529;SDS011;37613;51.788;21.582;2022-11-23T00:59:34;76.00;;;28.50;;
51529;SDS011;37613;51.788;21.582;2022-11-23T01:03:37;65.70;;;27.00;;
51529;SDS011;37613;51.788;21.582;2022-11-23T01:07:40;68.00;;;27.40;;
51529;SDS011;37613;51.788;21.582;2022-11-23T01:11:42;88.40;;;31.90;;
51529;SDS011;37613;51.788;21.582;2022-11-23T01:15:48;72.40;;;27.70;;
51529;SDS011;37613;51.788;21.582;2022-11-23T01:19:51;85.20;;;31.90;;
51529;SDS011;37613;51.788;21.582;2022-11-23T01:23:54;67.50;;;27.00;;
51529;SDS011;37613;51.788;21.582;2022-11-23T01:27:59;78.20;;;29.50;;
51529;SDS011;37613;51.788;21.582;2022-11-23T01:32:10;105.70;;;33.70;;
51529;SDS011;37613;51.788;21.582;2022-11-23T01:36:14;76.50;;;29.50;;
51529;SDS011;37613;51.788;21.582;2022-11-23T01:40:18;79.20;;;28.00;;
51529;SDS011;37613;51.788;21.582;2022-11-23T01:44:30;74.80;;;28.30;;
51529;SDS011;37613;51.788;21.582;2022-11-23T01:48:38;80.50;;;28.90;;
51529;SDS011;37613;51.788;21.582;2022-11-23T01:52:43;77.00;;;27.30;;
51529;SDS011;37613;51.788;21.582;2022-11-23T01:56:46;91.60;;;32.10;;
51529;SDS011;37613;51.788;21.582;2022-11-23T02:00:54;80.40;;;26.70;;
51529;SDS011;37613;51.788;21.582;2022-11-23T02:04:58;78.20;;;27.50;;
51529;SDS011;37613;51.788;21.582;2022-11-23T02:09:02;80.30;;;29.00;;
51529;SDS011;37613;51.788;21.582;2022-11-23T02:13:05;83.60;;;28.20;;
51529;SDS011;37613;51.788;21.582;2022-11-23T02:17:12;73.70;;;26.60;;
51529;SDS011;37613;51.788;21.582;2022-11-23T02:21:17;73.00;;;27.30;;
51529;SDS011;37613;51.788;21.582;2022-11-23T02:25:47;81.00;;;28.20;;
51529;SDS011;37613;51.788;21.582;2022-11-23T02:30:04;86.40;;;29.40;;
51529;SDS011;37613;51.788;21.582;2022-11-23T02:34:07;76.30;;;27.50;;
51529;SDS011;37613;51.788;21.582;2022-11-23T02:38:09;79.20;;;25.80;;
51529;SDS011;37613;51.788;21.582;2022-11-23T02:42:11;57.90;;;22.40;;
51529;SDS011;37613;51.788;21.582;2022-11-23T02:46:13;67.40;;;24.40;;
51529;SDS011;37613;51.788;21.582;2022-11-23T02:50:16;64.40;;;25.50;;
51529;SDS011;37613;51.788;21.582;2022-11-23T02:54:18;65.10;;;25.50;;
51529;SDS011;37613;51.788;21.582;2022-11-23T02:58:20;62.50;;;21.80;;
51529;SDS011;37613;51.788;21.582;2022-11-23T03:02:22;60.40;;;22.00;;
51529;SDS011;37613;51.788;21.582;2022-11-23T03:06:27;55.20;;;21.00;;
51529;SDS011;37613;51.788;21.582;2022-11-23T03:10:33;66.10;;;25.20;;
51529;SDS011;37613;51.788;21.582;2022-11-23T03:14:35;56.80;;;23.20;;
51529;SDS011;37613;51.788;21.582;2022-11-23T03:22:42;56.70;;;20.40;;
51529;SDS011;37613;51.788;21.582;2022-11-23T03:26:44;69.10;;;24.40;;
51529;SDS011;37613;51.788;21.582;2022-11-23T03:30:46;53.90;;;22.50;;
51529;SDS011;37613;51.788;21.582;2022-11-23T03:34:48;57.20;;;18.60;;
51529;SDS011;37613;51.788;21.582;2022-11-23T03:38:51;53.30;;;20.40;;
51529;SDS011;37613;51.788;21.582;2022-11-23T03:42:53;53.30;;;19.80;;
51529;SDS011;37613;51.788;21.582;2022-11-23T03:46:55;51.60;;;18.80;;
51529;SDS011;37613;51.788;21.582;2022-11-23T03:50:57;49.00;;;19.40;;
51529;SDS011;37613;51.788;21.582;2022-11-23T03:54:59;43.30;;;17.70;;
51529;SDS011;37613;51.788;21.582;2022-11-23T03:59:01;76.50;;;31.10;;
51529;SDS011;37613;51.788;21.582;2022-11-23T04:03:03;49.40;;;18.50;;
51529;SDS011;37613;51.788;21.582;2022-11-23T04:07:05;46.30;;;18.30;;
51529;SDS011;37613;51.788;21.582;2022-11-23T04:11:07;54.40;;;22.50;;
51529;SDS011;37613;51.788;21.582;2022-11-23T04:15:09;44.80;;;18.40;;
51529;SDS011;37613;51.788;21.582;2022-11-23T04:19:12;42.20;;;16.10;;
51529;SDS011;37613;51.788;21.582;2022-11-23T04:23:14;41.80;;;17.10;;
51529;SDS011;37613;51.788;21.582;2022-11-23T04:27:16;45.20;;;17.40;;
51529;SDS011;37613;51.788;21.582;2022-11-23T04:31:18;44.50;;;16.60;;
51529;SDS011;37613;51.788;21.582;2022-11-23T04:35:20;53.10;;;19.50;;
51529;SDS011;37613;51.788;21.582;2022-11-23T04:39:23;51.50;;;18.70;;
51529;SDS011;37613;51.788;21.582;2022-11-23T04:43:24;35.20;;;14.50;;
51529;SDS011;37613;51.788;21.582;2022-11-23T04:47:26;66.30;;;29.90;;
51529;SDS011;37613;51.788;21.582;2022-11-23T04:51:28;45.90;;;17.60;;
51529;SDS011;37613;51.788;21.582;2022-11-23T04:55:30;33.40;;;14.10;;
51529;SDS011;37613;51.788;21.582;2022-11-23T04:59:32;45.70;;;18.90;;
51529;SDS011;37613;51.788;21.582;2022-11-23T05:03:34;46.00;;;18.50;;
51529;SDS011;37613;51.788;21.582;2022-11-23T05:07:36;44.40;;;16.90;;
51529;SDS011;37613;51.788;21.582;2022-11-23T05:11:38;38.40;;;15.90;;
51529;SDS011;37613;51.788;21.582;2022-11-23T05:15:41;46.40;;;16.90;;
51529;SDS011;37613;51.788;21.582;2022-11-23T05:19:43;45.60;;;17.30;;
51529;SDS011;37613;51.788;21.582;2022-11-23T05:23:46;34.90;;;16.20;;
51529;SDS011;37613;51.788;21.582;2022-11-23T05:27:47;36.90;;;17.20;;
51529;SDS011;37613;51.788;21.582;2022-11-23T05:31:50;51.80;;;25.50;;
51529;SDS011;37613;51.788;21.582;2022-11-23T05:35:55;50.10;;;21.10;;
51529;SDS011;37613;51.788;21.582;2022-11-23T05:39:57;37.20;;;18.10;;
51529;SDS011;37613;51.788;21.582;2022-11-23T05:43:59;43.90;;;17.50;;
51529;SDS011;37613;51.788;21.582;2022-11-23T05:48:01;39.80;;;21.40;;
51529;SDS011;37613;51.788;21.582;2022-11-23T05:52:06;55.50;;;27.20;;
51529;SDS011;37613;51.788;21.582;2022-11-23T05:56:08;45.20;;;20.10;;
51529;SDS011;37613;51.788;21.582;2022-11-23T06:00:10;48.10;;;24.50;;
51529;SDS011;37613;51.788;21.582;2022-11-23T06:04:16;37.50;;;18.10;;
51529;SDS011;37613;51.788;21.582;2022-11-23T06:08:18;35.40;;;16.90;;
51529;SDS011;37613;51.788;21.582;2022-11-23T06:12:20;48.80;;;22.90;;
51529;SDS011;37613;51.788;21.582;2022-11-23T06:16:22;52.60;;;26.00;;
51529;SDS011;37613;51.788;21.582;2022-11-23T06:20:24;62.90;;;31.40;;
51529;SDS011;37613;51.788;21.582;2022-11-23T06:24:27;51.70;;;26.70;;
51529;SDS011;37613;51.788;21.582;2022-11-23T06:28:29;36.80;;;19.20;;
51529;SDS011;37613;51.788;21.582;2022-11-23T06:32:31;30.80;;;15.90;;
51529;SDS011;37613;51.788;21.582;2022-11-23T06:36:33;90.10;;;42.10;;
51529;SDS011;37613;51.788;21.582;2022-11-23T06:40:35;147.70;;;62.70;;
51529;SDS011;37613;51.788;21.582;2022-11-23T06:44:38;130.30;;;53.60;;
51529;SDS011;37613;51.788;21.582;2022-11-23T06:48:42;111.00;;;54.30;;
51529;SDS011;37613;51.788;21.582;2022-11-23T06:52:45;71.50;;;35.70;;
51529;SDS011;37613;51.788;21.582;2022-11-23T06:56:47;141.90;;;93.00;;
51529;SDS011;37613;51.788;21.582;2022-11-23T07:00:49;67.50;;;36.60;;
51529;SDS011;37613;51.788;21.582;2022-11-23T07:04:50;161.90;;;84.80;;
51529;SDS011;37613;51.788;21.582;2022-11-23T07:08:54;80.40;;;45.70;;
51529;SDS011;37613;51.788;21.582;2022-11-23T07:13:01;58.70;;;26.60;;
51529;SDS011;37613;51.788;21.582;2022-11-23T07:17:05;43.40;;;22.70;;
51529;SDS011;37613;51.788;21.582;2022-11-23T07:21:07;112.30;;;58.40;;
51529;SDS011;37613;51.788;21.582;2022-11-23T07:25:09;67.50;;;35.20;;
51529;SDS011;37613;51.788;21.582;2022-11-23T07:29:12;114.80;;;48.50;;
51529;SDS011;37613;51.788;21.582;2022-11-23T07:33:17;64.50;;;31.10;;
51529;SDS011;37613;51.788;21.582;2022-11-23T07:37:19;40.00;;;18.70;;
51529;SDS011;37613;51.788;21.582;2022-11-23T07:41:22;36.30;;;18.10;;
51529;SDS011;37613;51.788;21.582;2022-11-23T07:45:24;62.30;;;29.80;;
51529;SDS011;37613;51.788;21.582;2022-11-23T07:49:26;68.40;;;30.10;;
51529;SDS011;37613;51.788;21.582;2022-11-23T07:53:28;55.60;;;27.80;;
51529;SDS011;37613;51.788;21.582;2022-11-23T07:57:30;70.10;;;36.10;;
51529;SDS011;37613;51.788;21.582;2022-11-23T08:01:35;68.20;;;31.60;;
51529;SDS011;37613;51.788;21.582;2022-11-23T08:05:36;43.50;;;22.90;;
51529;SDS011;37613;51.788;21.582;2022-11-23T08:09:40;39.70;;;18.40;;
51529;SDS011;37613;51.788;21.582;2022-11-23T08:13:47;40.40;;;18.30;;
51529;SDS011;37613;51.788;21.582;2022-11-23T08:17:53;46.30;;;21.90;;
51529;SDS011;37613;51.788;21.582;2022-11-23T08:21:58;34.20;;;18.30;;
51529;SDS011;37613;51.788;21.582;2022-11-23T08:26:01;34.00;;;18.10;;
51529;SDS011;37613;51.788;21.582;2022-11-23T08:30:05;45.70;;;22.80;;
51529;SDS011;37613;51.788;21.582;2022-11-23T08:34:08;54.80;;;23.20;;
51529;SDS011;37613;51.788;21.582;2022-11-23T08:38:10;63.70;;;29.80;;
51529;SDS011;37613;51.788;21.582;2022-11-23T08:42:12;67.30;;;25.90;;
51529;SDS011;37613;51.788;21.582;2022-11-23T08:46:15;40.40;;;19.40;;
51529;SDS011;37613;51.788;21.582;2022-11-23T08:50:18;94.10;;;47.60;;
51529;SDS011;37613;51.788;21.582;2022-11-23T08:54:20;68.50;;;34.20;;
51529;SDS011;37613;51.788;21.582;2022-11-23T08:58:24;61.10;;;27.10;;
51529;SDS011;37613;51.788;21.582;2022-11-23T09:02:26;47.80;;;23.90;;
51529;SDS011;37613;51.788;21.582;2022-11-23T09:06:31;59.80;;;28.30;;
51529;SDS011;37613;51.788;21.582;2022-11-23T09:10:34;54.70;;;26.30;;
51529;SDS011;37613;51.788;21.582;2022-11-23T09:14:36;61.80;;;28.60;;
51529;SDS011;37613;51.788;21.582;2022-11-23T09:18:39;56.00;;;24.70;;
51529;SDS011;37613;51.788;21.582;2022-11-23T09:22:41;49.90;;;27.00;;
51529;SDS011;37613;51.788;21.582;2022-11-23T09:26:43;61.30;;;27.60;;
51529;SDS011;37613;51.788;21.582;2022-11-23T09:30:45;75.20;;;37.40;;
51529;SDS011;37613;51.788;21.582;2022-11-23T09:34:48;44.60;;;23.50;;
51529;SDS011;37613;51.788;21.582;2022-11-23T09:38:50;62.10;;;31.90;;
51529;SDS011;37613;51.788;21.582;2022-11-23T09:43:44;40.00;;;20.10;;
51529;SDS011;37613;51.788;21.582;2022-11-23T09:51:48;50.50;;;26.30;;
51529;SDS011;37613;51.788;21.582;2022-11-23T09:55:56;49.00;;;23.40;;
51529;SDS011;37613;51.788;21.582;2022-11-23T10:00:15;60.20;;;31.70;;
51529;SDS011;37613;51.788;21.582;2022-11-23T10:04:21;56.10;;;27.90;;
51529;SDS011;37613;51.788;21.582;2022-11-23T10:21:47;56.40;;;27.80;;
51529;SDS011;37613;51.788;21.582;2022-11-23T10:25:59;65.90;;;31.60;;
51529;SDS011;37613;51.788;21.582;2022-11-23T10:30:02;61.70;;;27.20;;
51529;SDS011;37613;51.788;21.582;2022-11-23T10:34:16;65.30;;;30.60;;
51529;SDS011;37613;51.788;21.582;2022-11-23T10:38:28;64.10;;;31.10;;
51529;SDS011;37613;51.788;21.582;2022-11-23T10:42:32;108.20;;;46.50;;
51529;SDS011;37613;51.788;21.582;2022-11-23T10:46:39;76.80;;;33.30;;
51529;SDS011;37613;51.788;21.582;2022-11-23T10:50:41;73.60;;;31.10;;
51529;SDS011;37613;51.788;21.582;2022-11-23T10:54:50;81.90;;;35.10;;
51529;SDS011;37613;51.788;21.582;2022-11-23T10:58:54;92.10;;;41.90;;
51529;SDS011;37613;51.788;21.582;2022-11-23T11:02:57;72.10;;;35.00;;
51529;SDS011;37613;51.788;21.582;2022-11-23T11:11:34;65.90;;;30.40;;
51529;SDS011;37613;51.788;21.582;2022-11-23T11:15:43;84.70;;;36.60;;
51529;SDS011;37613;51.788;21.582;2022-11-23T11:19:53;62.40;;;29.60;;
51529;SDS011;37613;51.788;21.582;2022-11-23T11:23:59;76.40;;;30.90;;
51529;SDS011;37613;51.788;21.582;2022-11-23T11:28:05;76.30;;;32.90;;
51529;SDS011;37613;51.788;21.582;2022-11-23T11:36:24;75.90;;;33.80;;
51529;SDS011;37613;51.788;21.582;2022-11-23T11:40:36;86.00;;;37.90;;
51529;SDS011;37613;51.788;21.582;2022-11-23T11:44:46;83.30;;;36.00;;
51529;SDS011;37613;51.788;21.582;2022-11-23T11:48:53;60.60;;;29.70;;
51529;SDS011;37613;51.788;21.582;2022-11-23T11:53:02;70.80;;;32.50;;
51529;SDS011;37613;51.788;21.582;2022-11-23T11:57:18;71.40;;;30.80;;
51529;SDS011;37613;51.788;21.582;2022-11-23T12:01:34;98.20;;;44.60;;
51529;SDS011;37613;51.788;21.582;2022-11-23T12:09:55;75.50;;;34.00;;
51529;SDS011;37613;51.788;21.582;2022-11-23T12:14:04;76.20;;;33.20;;
51529;SDS011;37613;51.788;21.582;2022-11-23T12:26:51;84.10;;;36.20;;
51529;SDS011;37613;51.788;21.582;2022-11-23T12:48:48;80.60;;;35.50;;
51529;SDS011;37613;51.788;21.582;2022-11-23T12:53:04;79.30;;;37.80;;
51529;SDS011;37613;51.788;21.582;2022-11-23T13:01:40;79.00;;;36.60;;
51529;SDS011;37613;51.788;21.582;2022-11-23T13:06:13;74.80;;;34.40;;
51529;SDS011;37613;51.788;21.582;2022-11-23T13:14:56;93.30;;;45.60;;
51529;SDS011;37613;51.788;21.582;2022-11-23T13:19:26;106.40;;;48.70;;
51529;SDS011;37613;51.788;21.582;2022-11-23T13:23:36;106.00;;;58.10;;
51529;SDS011;37613;51.788;21.582;2022-11-23T13:27:43;99.50;;;47.10;;
51529;SDS011;37613;51.788;21.582;2022-11-23T13:32:30;91.00;;;43.40;;
51529;SDS011;37613;51.788;21.582;2022-11-23T13:36:38;73.00;;;34.80;;
51529;SDS011;37613;51.788;21.582;2022-11-23T13:40:44;76.90;;;38.80;;
51529;SDS011;37613;51.788;21.582;2022-11-23T13:44:46;86.80;;;38.50;;
51529;SDS011;37613;51.788;21.582;2022-11-23T13:48:49;85.60;;;36.40;;
51529;SDS011;37613;51.788;21.582;2022-11-23T13:52:55;85.10;;;38.90;;
51529;SDS011;37613;51.788;21.582;2022-11-23T13:57:00;80.10;;;35.60;;
51529;SDS011;37613;51.788;21.582;2022-11-23T14:01:05;89.20;;;40.60;;
51529;SDS011;37613;51.788;21.582;2022-11-23T14:09:38;90.30;;;39.60;;
51529;SDS011;37613;51.788;21.582;2022-11-23T14:13:59;89.40;;;40.90;;
51529;SDS011;37613;51.788;21.582;2022-11-23T14:35:18;106.20;;;52.50;;
51529;SDS011;37613;51.788;21.582;2022-11-23T14:39:44;102.00;;;44.50;;
51529;SDS011;37613;51.788;21.582;2022-11-23T14:44:08;111.10;;;47.80;;
51529;SDS011;37613;51.788;21.582;2022-11-23T14:48:19;135.20;;;62.20;;
51529;SDS011;37613;51.788;21.582;2022-11-23T14:52:28;110.30;;;50.20;;
51529;SDS011;37613;51.788;21.582;2022-11-23T14:56:35;94.70;;;37.90;;
51529;SDS011;37613;51.788;21.582;2022-11-23T15:00:51;106.90;;;42.10;;
51529;SDS011;37613;51.788;21.582;2022-11-23T15:09:25;123.30;;;57.70;;
51529;SDS011;37613;51.788;21.582;2022-11-23T15:13:46;124.20;;;55.10;;
51529;SDS011;37613;51.788;21.582;2022-11-23T15:17:57;144.70;;;63.60;;
51529;SDS011;37613;51.788;21.582;2022-11-23T15:22:00;120.90;;;49.40;;
51529;SDS011;37613;51.788;21.582;2022-11-23T15:26:03;130.60;;;60.60;;
51529;SDS011;37613;51.788;21.582;2022-11-23T15:30:17;104.40;;;48.40;;
51529;SDS011;37613;51.788;21.582;2022-11-23T15:34:21;97.30;;;46.50;;
51529;SDS011;37613;51.788;21.582;2022-11-23T15:38:23;83.60;;;40.90;;
51529;SDS011;37613;51.788;21.582;2022-11-23T15:42:26;102.70;;;49.40;;
51529;SDS011;37613;51.788;21.582;2022-11-23T15:46:33;93.50;;;45.30;;
51529;SDS011;37613;51.788;21.582;2022-11-23T15:51:17;124.30;;;52.20;;
51529;SDS011;37613;51.788;21.582;2022-11-23T15:55:12;110.00;;;51.20;;
51529;SDS011;37613;51.788;21.582;2022-11-23T15:59:31;105.60;;;46.80;;
51529;SDS011;37613;51.788;21.582;2022-11-23T16:03:48;87.80;;;41.20;;
51529;SDS011;37613;51.788;21.582;2022-11-23T16:08:22;71.40;;;33.50;;
51529;SDS011;37613;51.788;21.582;2022-11-23T16:12:48;84.20;;;39.60;;
51529;SDS011;37613;51.788;21.582;2022-11-23T16:16:59;84.70;;;39.70;;
51529;SDS011;37613;51.788;21.582;2022-11-23T16:25:26;113.50;;;52.20;;
51529;SDS011;37613;51.788;21.582;2022-11-23T16:29:35;123.60;;;57.40;;
51529;SDS011;37613;51.788;21.582;2022-11-23T16:33:38;91.80;;;42.80;;
51529;SDS011;37613;51.788;21.582;2022-11-23T16:37:40;121.80;;;57.20;;
51529;SDS011;37613;51.788;21.582;2022-11-23T16:41:42;87.50;;;40.40;;
51529;SDS011;37613;51.788;21.582;2022-11-23T16:45:49;98.40;;;42.40;;
51529;SDS011;37613;51.788;21.582;2022-11-23T16:49:53;96.10;;;44.20;;
51529;SDS011;37613;51.788;21.582;2022-11-23T16:53:56;71.90;;;34.80;;
51529;SDS011;37613;51.788;21.582;2022-11-23T16:57:58;98.50;;;44.70;;
51529;SDS011;37613;51.788;21.582;2022-11-23T17:02:00;84.80;;;41.40;;
51529;SDS011;37613;51.788;21.582;2022-11-23T17:06:09;96.60;;;44.30;;
51529;SDS011;37613;51.788;21.582;2022-11-23T17:10:18;118.00;;;54.10;;
51529;SDS011;37613;51.788;21.582;2022-11-23T17:14:20;106.10;;;48.80;;
51529;SDS011;37613;51.788;21.582;2022-11-23T17:18:24;93.60;;;41.00;;
51529;SDS011;37613;51.788;21.582;2022-11-23T17:22:30;89.80;;;46.60;;
51529;SDS011;37613;51.788;21.582;2022-11-23T17:26:36;110.90;;;53.70;;
51529;SDS011;37613;51.788;21.582;2022-11-23T17:30:40;99.10;;;49.90;;
51529;SDS011;37613;51.788;21.582;2022-11-23T17:34:43;254.40;;;127.60;;
51529;SDS011;37613;51.788;21.582;2022-11-23T17:38:48;325.10;;;152.40;;
51529;SDS011;37613;51.788;21.582;2022-11-23T17:46:54;164.10;;;82.60;;
51529;SDS011;37613;51.788;21.582;2022-11-23T17:50:59;83.40;;;41.60;;
51529;SDS011;37613;51.788;21.582;2022-11-23T17:55:03;83.40;;;39.10;;
51529;SDS011;37613;51.788;21.582;2022-11-23T17:59:07;85.70;;;39.30;;
51529;SDS011;37613;51.788;21.582;2022-11-23T18:03:09;116.70;;;55.60;;
51529;SDS011;37613;51.788;21.582;2022-11-23T18:07:12;122.80;;;55.80;;
51529;SDS011;37613;51.788;21.582;2022-11-23T18:11:16;114.20;;;55.00;;
51529;SDS011;37613;51.788;21.582;2022-11-23T18:15:19;93.00;;;42.50;;
51529;SDS011;37613;51.788;21.582;2022-11-23T18:19:22;95.90;;;46.70;;
51529;SDS011;37613;51.788;21.582;2022-11-23T18:23:26;90.60;;;46.00;;
51529;SDS011;37613;51.788;21.582;2022-11-23T18:27:29;143.30;;;69.10;;
51529;SDS011;37613;51.788;21.582;2022-11-23T18:31:32;109.00;;;47.50;;
51529;SDS011;37613;51.788;21.582;2022-11-23T18:35:35;113.80;;;50.90;;
51529;SDS011;37613;51.788;21.582;2022-11-23T18:39:37;121.20;;;55.90;;
51529;SDS011;37613;51.788;21.582;2022-11-23T18:43:40;170.60;;;73.10;;
51529;SDS011;37613;51.788;21.582;2022-11-23T18:47:44;93.90;;;42.60;;
51529;SDS011;37613;51.788;21.582;2022-11-23T18:51:46;99.00;;;44.00;;
51529;SDS011;37613;51.788;21.582;2022-11-23T18:55:49;113.80;;;50.70;;
51529;SDS011;37613;51.788;21.582;2022-11-23T18:59:51;114.10;;;58.80;;
51529;SDS011;37613;51.788;21.582;2022-11-23T19:03:54;100.00;;;47.40;;
51529;SDS011;37613;51.788;21.582;2022-11-23T19:07:59;162.40;;;74.50;;
51529;SDS011;37613;51.788;21.582;2022-11-23T19:12:06;127.50;;;57.20;;
51529;SDS011;37613;51.788;21.582;2022-11-23T19:16:11;170.20;;;73.50;;
51529;SDS011;37613;51.788;21.582;2022-11-23T19:20:15;206.40;;;84.50;;
51529;SDS011;37613;51.788;21.582;2022-11-23T19:24:21;270.90;;;90.30;;
51529;SDS011;37613;51.788;21.582;2022-11-23T19:28:24;122.50;;;50.40;;
51529;SDS011;37613;51.788;21.582;2022-11-23T19:32:28;160.00;;;65.90;;
51529;SDS011;37613;51.788;21.582;2022-11-23T19:36:32;179.80;;;80.50;;
51529;SDS011;37613;51.788;21.582;2022-11-23T19:40:40;126.80;;;52.00;;
51529;SDS011;37613;51.788;21.582;2022-11-23T19:44:42;110.70;;;48.70;;
51529;SDS011;37613;51.788;21.582;2022-11-23T19:48:48;103.70;;;46.50;;
51529;SDS011;37613;51.788;21.582;2022-11-23T19:52:51;112.70;;;54.60;;
51529;SDS011;37613;51.788;21.582;2022-11-23T19:56:54;102.00;;;45.90;;
51529;SDS011;37613;51.788;21.582;2022-11-23T20:01:00;103.60;;;48.30;;
51529;SDS011;37613;51.788;21.582;2022-11-23T20:05:07;116.70;;;53.90;;
51529;SDS011;37613;51.788;21.582;2022-11-23T20:09:11;107.20;;;49.30;;
51529;SDS011;37613;51.788;21.582;2022-11-23T20:13:23;132.40;;;59.20;;
51529;SDS011;37613;51.788;21.582;2022-11-23T20:17:26;107.50;;;49.20;;
51529;SDS011;37613;51.788;21.582;2022-11-23T20:21:32;145.70;;;66.40;;
51529;SDS011;37613;51.788;21.582;2022-11-23T20:25:36;124.40;;;54.90;;
51529;SDS011;37613;51.788;21.582;2022-11-23T20:29:42;133.30;;;59.80;;
51529;SDS011;37613;51.788;21.582;2022-11-23T20:33:48;134.10;;;63.60;;
51529;SDS011;37613;51.788;21.582;2022-11-23T20:37:52;120.60;;;55.90;;
51529;SDS011;37613;51.788;21.582;2022-11-23T20:41:55;105.10;;;46.40;;
51529;SDS011;37613;51.788;21.582;2022-11-23T20:46:00;107.80;;;47.80;;
51529;SDS011;37613;51.788;21.582;2022-11-23T20:50:03;83.10;;;40.40;;
51529;SDS011;37613;51.788;21.582;2022-11-23T20:54:07;102.20;;;49.00;;
51529;SDS011;37613;51.788;21.582;2022-11-23T20:58:18;108.40;;;51.50;;
51529;SDS011;37613;51.788;21.582;2022-11-23T21:02:21;117.70;;;53.60;;
51529;SDS011;37613;51.788;21.582;2022-11-23T21:06:24;110.80;;;54.50;;
51529;SDS011;37613;51.788;21.582;2022-11-23T21:10:28;104.50;;;48.10;;
51529;SDS011;37613;51.788;21.582;2022-11-23T21:14:48;104.10;;;45.00;;
51529;SDS011;37613;51.788;21.582;2022-11-23T21:18:51;103.50;;;46.90;;
51529;SDS011;37613;51.788;21.582;2022-11-23T21:22:53;122.10;;;56.00;;
51529;SDS011;37613;51.788;21.582;2022-11-23T21:26:55;96.50;;;42.00;;
51529;SDS011;37613;51.788;21.582;2022-11-23T21:31:07;94.60;;;43.90;;
51529;SDS011;37613;51.788;21.582;2022-11-23T21:35:10;89.80;;;40.70;;
51529;SDS011;37613;51.788;21.582;2022-11-23T21:39:12;76.90;;;33.80;;
51529;SDS011;37613;51.788;21.582;2022-11-23T21:43:15;86.10;;;39.00;;
51529;SDS011;37613;51.788;21.582;2022-11-23T21:47:17;90.40;;;40.90;;
51529;SDS011;37613;51.788;21.582;2022-11-23T21:51:20;91.70;;;41.50;;
51529;SDS011;37613;51.788;21.582;2022-11-23T21:55:24;113.70;;;49.10;;
51529;SDS011;37613;51.788;21.582;2022-11-23T21:59:26;96.60;;;43.50;;
51529;SDS011;37613;51.788;21.582;2022-11-23T22:03:28;99.20;;;44.20;;
51529;SDS011;37613;51.788;21.582;2022-11-23T22:11:35;86.50;;;37.80;;
51529;SDS011;37613;51.788;21.582;2022-11-23T22:15:40;90.50;;;37.60;;
51529;SDS011;37613;51.788;21.582;2022-11-23T22:19:42;74.30;;;31.90;;
51529;SDS011;37613;51.788;21.582;2022-11-23T22:23:44;69.20;;;30.60;;
51529;SDS011;37613;51.788;21.582;2022-11-23T22:27:46;67.00;;;28.30;;
51529;SDS011;37613;51.788;21.582;2022-11-23T22:31:54;62.00;;;30.40;;
51529;SDS011;37613;51.788;21.582;2022-11-23T22:36:06;67.00;;;31.50;;
51529;SDS011;37613;51.788;21.582;2022-11-23T22:40:16;79.80;;;33.10;;
51529;SDS011;37613;51.788;21.582;2022-11-23T22:44:18;67.60;;;32.00;;
51529;SDS011;37613;51.788;21.582;2022-11-23T22:48:20;71.00;;;30.60;;
51529;SDS011;37613;51.788;21.582;2022-11-23T22:52:22;68.00;;;30.40;;
51529;SDS011;37613;51.788;21.582;2022-11-23T22:56:24;72.00;;;31.60;;
51529;SDS011;37613;51.788;21.582;2022-11-23T23:00:27;70.70;;;30.40;;
51529;SDS011;37613;51.788;21.582;2022-11-23T23:04:29;59.20;;;26.90;;
51529;SDS011;37613;51.788;21.582;2022-11-23T23:08:31;62.60;;;29.70;;
51529;SDS011;37613;51.788;21.582;2022-11-23T23:12:34;65.70;;;27.30;;
51529;SDS011;37613;51.788;21.582;2022-11-23T23:16:36;73.00;;;31.10;;
51529;SDS011;37613;51.788;21.582;2022-11-23T23:20:38;55.00;;;27.20;;
51529;SDS011;37613;51.788;21.582;2022-11-23T23:24:40;61.80;;;28.60;;
51529;SDS011;37613;51.788;21.582;2022-11-23T23:28:42;59.80;;;26.80;;
51529;SDS011;37613;51.788;21.582;2022-11-23T23:32:44;62.20;;;26.10;;
51529;SDS011;37613;51.788;21.582;2022-11-23T23:37:00;61.60;;;26.90;;
51529;SDS011;37613;51.788;21.582;2022-11-23T23:41:02;52.20;;;24.60;;
51529;SDS011;37613;51.788;21.582;2022-11-23T23:49:08;52.90;;;25.30;;
51529;SDS011;37613;51.788;21.582;2022-11-23T23:53:10;57.90;;;26.20;;
51529;SDS011;37613;51.788;21.582;2022-11-23T23:57:12;52.50;;;24.20;;
